Time;durP1;ratioP1;P1;durP2;ratioP2;P2;SDS_P1;SDS_P2;PMS_P1;PMS_P2;Temp;Humidity;BMP_temperature;BMP_pressure;BME280_temperature;BME280_humidity;BME280_pressure;Samples;Min_cycle;Max_cycle;Signal;HPM_P1;HPM_P2
2021/05/20 00:04:50;;;;;;;10.88;4.68;;;8.80;99.90;;;;;;10003264;29;20557;-46
2021/05/20 00:09:50;;;;;;;11.40;3.88;;;8.80;99.90;;;;;;10004415;29;20459;-46
2021/05/20 00:14:51;;;;;;;8.82;4.57;;;8.70;99.90;;;;;;10001389;29;20109;-46
2021/05/20 00:19:52;;;;;;;10.10;3.80;;;8.70;99.90;;;;;;9998544;29;20057;-46
2021/05/20 00:24:56;;;;;;;10.07;4.70;;;8.60;99.90;;;;;;10002143;29;20512;-46
2021/05/20 00:29:57;;;;;;;11.20;3.83;;;8.60;99.90;;;;;;10010344;29;20206;-46
2021/05/20 00:34:58;;;;;;;12.07;4.18;;;8.50;99.90;;;;;;10022418;29;20058;-46
2021/05/20 00:39:59;;;;;;;8.65;4.20;;;8.50;99.90;;;;;;10007451;29;20042;-46
2021/05/20 00:45:05;;;;;;;13.77;5.28;;;8.40;99.90;;;;;;10013335;29;20495;-46
2021/05/20 00:50:09;;;;;;;9.38;5.30;;;8.40;99.90;;;;;;10007627;29;20050;-46
2021/05/20 00:55:10;;;;;;;8.45;3.83;;;8.40;99.90;;;;;;10006350;29;20046;-46
2021/05/20 01:00:13;;;;;;;10.85;5.57;;;8.40;99.90;;;;;;10005450;29;20045;-46
2021/05/20 01:05:17;;;;;;;13.23;4.68;;;8.40;99.90;;;;;;10006462;29;20038;-46
2021/05/20 01:10:18;;;;;;;11.73;4.88;;;8.50;99.90;;;;;;10007690;29;20046;-46
2021/05/20 01:15:24;;;;;;;14.40;5.63;;;8.60;99.90;;;;;;10007790;29;20077;-46
2021/05/20 01:20:34;;;;;;;11.50;5.60;;;8.70;99.90;;;;;;10006498;29;20526;-46
2021/05/20 01:25:38;;;;;;;13.05;5.57;;;8.80;99.90;;;;;;10008559;29;20482;-46
2021/05/20 01:30:42;;;;;;;13.27;5.20;;;8.80;99.90;;;;;;10009307;29;20069;-46
2021/05/20 01:35:57;;;;;;;12.35;5.80;;;8.80;99.90;;;;;;10008051;29;20105;-46
2021/05/20 01:41:03;;;;;;;11.02;4.90;;;8.90;99.90;;;;;;10009086;29;20050;-46
2021/05/20 01:46:05;;;;;;;12.27;5.35;;;8.90;99.90;;;;;;10006525;29;20041;-46
2021/05/20 01:51:24;;;;;;;12.13;4.78;;;8.70;99.90;;;;;;10007869;29;20541;-46
2021/05/20 01:56:25;;;;;;;13.73;5.75;;;8.80;99.90;;;;;;10006245;29;20071;-46
2021/05/20 02:01:25;;;;;;;14.43;5.68;;;8.80;99.90;;;;;;10005954;29;20083;-46
2021/05/20 02:06:27;;;;;;;13.98;4.82;;;8.70;99.90;;;;;;10007494;29;20045;-46
2021/05/20 02:11:28;;;;;;;11.18;5.13;;;8.70;99.90;;;;;;10014159;29;20064;-46
2021/05/20 02:16:29;;;;;;;12.80;5.80;;;8.60;99.90;;;;;;10007712;29;20509;-46
2021/05/20 02:21:30;;;;;;;10.52;3.97;;;8.60;99.90;;;;;;10019298;29;20045;-46
2021/05/20 02:26:31;;;;;;;12.00;5.30;;;8.60;99.90;;;;;;10020028;29;20058;-46
2021/05/20 02:31:32;;;;;;;12.57;5.80;;;8.60;99.90;;;;;;10008042;29;20406;-46
2021/05/20 02:36:33;;;;;;;13.00;4.65;;;8.50;99.90;;;;;;9989226;29;20046;-46
2021/05/20 02:41:35;;;;;;;12.30;5.45;;;8.40;99.90;;;;;;10006684;29;20045;-46
2021/05/20 02:46:37;;;;;;;11.60;5.72;;;8.30;99.90;;;;;;10003916;29;20042;-46
2021/05/20 02:51:38;;;;;;;11.35;4.53;;;8.20;99.90;;;;;;10002545;29;20037;-46
2021/05/20 02:56:39;;;;;;;11.18;4.70;;;8.10;99.90;;;;;;10001915;29;20061;-46
2021/05/20 03:01:44;;;;;;;15.00;6.60;;;8.00;99.90;;;;;;10005794;29;20101;-46
2021/05/20 03:06:46;;;;;;;16.92;6.75;;;8.00;99.90;;;;;;10003511;29;20046;-46
2021/05/20 03:11:47;;;;;;;24.75;8.18;;;8.00;99.90;;;;;;9972503;29;20060;-46
2021/05/20 03:16:48;;;;;;;22.45;7.78;;;8.10;99.90;;;;;;10017422;29;20061;-47
2021/05/20 03:21:49;;;;;;;21.90;7.20;;;8.20;99.90;;;;;;10002446;29;20050;-46
2021/05/20 03:26:50;;;;;;;17.73;7.68;;;8.30;99.90;;;;;;10001686;29;20041;-46
2021/05/20 03:31:51;;;;;;;13.07;6.63;;;8.40;99.90;;;;;;10006422;29;20058;-46
2021/05/20 03:36:51;;;;;;;20.33;8.98;;;8.40;99.90;;;;;;9986614;29;20045;-46
2021/05/20 03:41:55;;;;;;;18.63;7.20;;;8.40;99.90;;;;;;10005770;29;20133;-46
2021/05/20 03:47:30;;;;;;;22.85;7.28;;;8.40;99.90;;;;;;9991594;29;20046;-45
2021/05/20 03:52:51;;;;;;;22.52;6.53;;;8.30;99.90;;;;;;10004319;29;20046;-45
2021/05/20 03:57:52;;;;;;;12.73;5.75;;;8.30;99.90;;;;;;10002857;29;20152;-46
2021/05/20 04:02:56;;;;;;;12.95;6.22;;;8.20;99.90;;;;;;10007513;29;20556;-46
2021/05/20 04:08:09;;;;;;;;;;;;;;;;;;;;;
2021/05/20 04:13:25;;;;;;;12.50;4.57;;;8.10;99.90;;;;;;10014146;29;20141;-46
2021/05/20 04:18:29;;;;;;;14.30;4.93;;;8.20;99.90;;;;;;10013525;29;20045;-46
2021/05/20 04:23:33;;;;;;;15.07;6.05;;;8.20;99.90;;;;;;10010249;29;20157;-46
2021/05/20 04:28:35;;;;;;;13.27;5.60;;;8.30;99.90;;;;;;10011305;29;20516;-46
2021/05/20 04:33:41;;;;;;;8.85;3.97;;;8.30;99.90;;;;;;10007976;29;20045;-46
2021/05/20 04:38:44;;;;;;;13.45;4.90;;;8.20;99.90;;;;;;10010728;29;21654;-46
2021/05/20 04:43:51;;;;;;;12.38;5.22;;;8.10;99.90;;;;;;10015947;29;20466;-46
2021/05/20 04:48:52;;;;;;;12.77;5.57;;;8.20;99.90;;;;;;10007369;29;20081;-46
2021/05/20 04:53:53;;;;;;;12.40;5.10;;;8.20;99.90;;;;;;10009041;29;20398;-46
2021/05/20 04:58:54;;;;;;;18.70;6.45;;;8.30;99.90;;;;;;10002107;29;20061;-46
2021/05/20 05:04:01;;;;;;;20.67;5.95;;;8.50;99.90;;;;;;10028723;29;20501;-46
2021/05/20 05:09:05;;;;;;;17.35;6.35;;;8.60;99.90;;;;;;10009909;29;20631;-46
2021/05/20 05:14:10;;;;;;;21.05;6.53;;;8.70;99.90;;;;;;10011226;29;20399;-46
2021/05/20 05:19:14;;;;;;;16.50;6.38;;;8.70;99.90;;;;;;10006616;29;20461;-46
2021/05/20 05:24:15;;;;;;;28.10;6.20;;;8.90;99.90;;;;;;10013537;29;20168;-46
2021/05/20 05:29:16;;;;;;;18.17;4.40;;;8.90;99.90;;;;;;10011406;29;20045;-46
2021/05/20 05:34:17;;;;;;;24.08;6.85;;;9.00;99.90;;;;;;10020554;29;20053;-46
2021/05/20 05:39:21;;;;;;;17.25;5.50;;;9.00;99.90;;;;;;10015681;29;20046;-46
2021/05/20 05:44:38;;;;;;;12.55;5.05;;;9.10;99.90;;;;;;10013759;29;20054;-46
2021/05/20 05:49:45;;;;;;;21.92;6.78;;;9.00;99.90;;;;;;10004294;29;20050;-46
2021/05/20 05:54:48;;;;;;;15.00;6.30;;;9.20;99.90;;;;;;9981828;29;20038;-46
2021/05/20 06:04:59;;;;;;;19.70;7.28;;;9.40;99.90;;;;;;10107738;23;20232;-51
2021/05/20 06:15:05;;;;;;;20.10;10.27;;;9.50;99.90;;;;;;9957304;29;20088;-52
2021/05/20 06:20:08;;;;;;;14.00;5.70;;;9.40;99.90;;;;;;9967178;29;20510;-53
2021/05/20 06:25:09;;;;;;;18.27;5.90;;;9.50;99.90;;;;;;9966410;29;20050;-52
2021/05/20 06:30:10;;;;;;;25.25;9.10;;;9.60;99.90;;;;;;9967436;29;20046;-52
2021/05/20 06:35:11;;;;;;;20.30;7.68;;;9.70;99.90;;;;;;9958465;29;20118;-52
2021/05/20 06:40:13;;;;;;;16.13;6.30;;;9.70;99.90;;;;;;9962249;29;20110;-52
2021/05/20 06:45:13;;;;;;;16.83;5.72;;;9.70;99.90;;;;;;9948640;29;20069;-52
2021/05/20 06:50:14;;;;;;;13.23;6.38;;;9.80;99.90;;;;;;9962643;29;20061;-52
2021/05/20 06:55:15;;;;;;;17.55;7.50;;;9.70;99.90;;;;;;9947568;29;20327;-52
2021/05/20 07:00:17;;;;;;;16.08;6.15;;;9.80;99.90;;;;;;9959804;29;20157;-53
2021/05/20 07:05:18;;;;;;;18.00;7.85;;;9.90;99.90;;;;;;9950518;29;20049;-52
2021/05/20 07:10:19;;;;;;;20.45;7.00;;;10.00;99.90;;;;;;9959704;29;20088;-52
2021/05/20 07:15:21;;;;;;;20.40;7.25;;;10.00;99.90;;;;;;9955974;29;20066;-53
2021/05/20 07:20:22;;;;;;;20.48;7.65;;;10.00;99.90;;;;;;9967186;29;20379;-52
2021/05/20 07:25:23;;;;;;;18.70;7.00;;;10.30;99.90;;;;;;9959797;29;20519;-52
2021/05/20 07:30:23;;;;;;;19.92;8.18;;;10.60;99.90;;;;;;9962616;29;20115;-52
2021/05/20 07:35:25;;;;;;;22.65;8.95;;;10.80;99.90;;;;;;9956560;29;20309;-52
2021/05/20 07:40:26;;;;;;;18.45;7.68;;;10.90;99.90;;;;;;9962196;29;20058;-53
2021/05/20 07:45:27;;;;;;;20.20;9.15;;;11.00;99.90;;;;;;9964301;29;20046;-52
2021/05/20 07:50:28;;;;;;;25.30;7.90;;;11.20;99.90;;;;;;9962703;29;20511;-52
2021/05/20 07:55:29;;;;;;;17.33;7.40;;;11.00;99.90;;;;;;9956297;29;20358;-52
2021/05/20 08:00:31;;;;;;;26.73;9.13;;;11.10;99.90;;;;;;9962016;29;20062;-52
2021/05/20 08:05:39;;;;;;;24.48;7.25;;;11.00;99.90;;;;;;9950641;29;20411;-52
2021/05/20 08:10:47;;;;;;;21.70;8.03;;;11.20;99.90;;;;;;9965456;29;20130;-52
2021/05/20 08:15:48;;;;;;;26.47;9.20;;;11.20;99.90;;;;;;9955765;29;20046;-52
2021/05/20 08:20:49;;;;;;;28.08;10.10;;;11.20;99.90;;;;;;9962121;29;20616;-52
2021/05/20 08:25:50;;;;;;;24.10;7.65;;;11.50;99.90;;;;;;9964637;29;20126;-52
2021/05/20 08:30:52;;;;;;;28.25;10.52;;;11.90;99.90;;;;;;9963514;29;20061;-52
2021/05/20 08:35:54;;;;;;;26.15;9.35;;;12.10;99.90;;;;;;9950804;29;20052;-52
2021/05/20 08:40:58;;;;;;;29.15;9.57;;;12.50;99.90;;;;;;9959638;29;20081;-52
2021/05/20 08:45:59;;;;;;;23.52;9.00;;;12.80;99.90;;;;;;9967937;29;20412;-53
2021/05/20 08:51:01;;;;;;;24.30;10.32;;;13.10;99.90;;;;;;9966661;29;20046;-53
2021/05/20 08:56:02;;;;;;;20.60;7.75;;;13.20;99.90;;;;;;9965669;29;20050;-53
2021/05/20 09:01:02;;;;;;;19.92;7.57;;;13.50;99.90;;;;;;9966804;29;20438;-52
2021/05/20 09:06:05;;;;;;;19.38;9.07;;;13.70;99.90;;;;;;9952907;29;20054;-53
2021/05/20 09:11:05;;;;;;;17.02;6.57;;;13.90;99.90;;;;;;9968718;29;20058;-53
2021/05/20 09:16:13;;;;;;;10.00;4.47;;;14.20;99.90;;;;;;9950186;29;20046;-53
2021/05/20 09:21:14;;;;;;;9.35;5.28;;;14.40;99.90;;;;;;9967534;29;20060;-52
2021/05/20 09:26:15;;;;;;;9.88;3.47;;;14.80;99.90;;;;;;9964388;29;20451;-52
2021/05/20 09:31:47;;;;;;;10.60;3.88;;;15.30;99.90;;;;;;9966601;29;20117;-52
2021/05/20 09:36:50;;;;;;;8.02;3.55;;;15.30;99.90;;;;;;9941996;29;20046;-52
2021/05/20 09:42:14;;;;;;;9.18;4.60;;;15.20;99.90;;;;;;9966457;29;20077;-52
2021/05/20 09:47:15;;;;;;;8.07;3.15;;;15.40;99.90;;;;;;9966351;29;20446;-52
2021/05/20 09:52:22;;;;;;;7.63;2.97;;;15.60;99.90;;;;;;9961968;29;20069;-52
2021/05/20 09:57:41;;;;;;;5.35;2.47;;;15.70;99.90;;;;;;9959836;29;20171;-53
2021/05/20 10:02:44;;;;;;;4.72;2.13;;;15.90;99.90;;;;;;9966239;29;20109;-53
2021/05/20 10:07:45;;;;;;;5.28;1.98;;;16.50;99.90;;;;;;9963020;29;20185;-52
2021/05/20 10:12:47;;;;;;;4.55;2.00;;;16.50;99.90;;;;;;9964650;29;20125;-52
2021/05/20 10:17:48;;;;;;;6.78;2.25;;;16.50;99.90;;;;;;9960491;29;20074;-52
2021/05/20 10:22:50;;;;;;;8.23;4.03;;;16.80;99.90;;;;;;9960372;29;20050;-52
2021/05/20 10:27:51;;;;;;;7.78;3.40;;;17.20;99.90;;;;;;9963412;29;20041;-52
2021/05/20 10:32:57;;;;;;;7.35;3.13;;;17.00;99.90;;;;;;9963577;29;20453;-52
2021/05/20 10:37:59;;;;;;;8.63;3.50;;;17.30;99.90;;;;;;9963538;29;20133;-52
2021/05/20 10:43:05;;;;;;;11.48;3.38;;;17.30;99.90;;;;;;9964275;29;20098;-50
2021/05/20 10:48:08;;;;;;;6.30;2.33;;;17.90;99.90;;;;;;9961818;29;22294;-50
2021/05/20 10:53:08;;;;;;;5.38;1.80;;;18.10;99.90;;;;;;9964854;29;20103;-50
2021/05/20 10:58:09;;;;;;;5.90;1.88;;;18.20;99.90;;;;;;9964695;29;20050;-50
2021/05/20 11:03:10;;;;;;;3.35;1.80;;;18.20;99.90;;;;;;9966814;29;20129;-49
2021/05/20 11:08:26;;;;;;;3.95;1.80;;;18.60;99.90;;;;;;9958777;29;20479;-50
2021/05/20 11:13:42;;;;;;;3.80;1.77;;;18.70;99.90;;;;;;9963733;29;20514;-50
2021/05/20 11:18:45;;;;;;;1.98;0.93;;;18.70;99.90;;;;;;9964066;29;21061;-50
2021/05/20 11:23:46;;;;;;;3.90;1.40;;;18.40;98.80;;;;;;9962926;29;20528;-50
2021/05/20 11:29:05;;;;;;;5.70;1.92;;;17.80;99.90;;;;;;9963922;29;20589;-50
2021/05/20 11:39:21;;;;;;;4.80;2.55;;;17.10;99.90;;;;;;9961790;29;20042;-49
2021/05/20 11:44:25;;;;;;;8.43;2.72;;;16.70;99.90;;;;;;9962587;29;20093;-49
2021/05/20 11:49:26;;;;;;;9.98;3.08;;;16.60;99.90;;;;;;9961780;29;20054;-49
2021/05/20 11:54:49;;;;;;;8.18;4.05;;;16.70;99.90;;;;;;9959577;29;20054;-49
2021/05/20 11:59:52;;;;;;;8.73;3.72;;;16.50;99.90;;;;;;9965940;29;20406;-49
2021/05/20 12:05:08;;;;;;;8.50;3.70;;;16.60;99.90;;;;;;9958693;29;20094;-49
2021/05/20 12:10:15;;;;;;;8.82;4.60;;;16.80;99.90;;;;;;9964219;29;20462;-49
2021/05/20 12:15:21;;;;;;;8.80;4.00;;;16.70;99.90;;;;;;9969050;29;20417;-49
2021/05/20 12:20:24;;;;;;;9.98;5.32;;;16.80;99.90;;;;;;9968319;29;20383;-49
2021/05/20 12:25:26;;;;;;;11.15;5.18;;;16.60;99.90;;;;;;9978361;29;20428;-49
2021/05/20 12:30:36;;;;;;;11.63;5.88;;;16.30;99.90;;;;;;9976978;29;20188;-52
2021/05/20 12:35:37;;;;;;;13.70;5.53;;;16.30;99.90;;;;;;9968123;29;20577;-52
2021/05/20 12:40:50;;;;;;;10.77;4.72;;;16.20;99.90;;;;;;9975579;29;20387;-52
2021/05/20 12:45:57;;;;;;;10.13;4.57;;;16.10;99.90;;;;;;9976061;29;20401;-51
2021/05/20 12:51:26;;;;;;;14.27;5.25;;;16.10;99.90;;;;;;9975845;29;20122;-51
2021/05/20 12:56:35;;;;;;;7.15;3.50;;;16.20;99.90;;;;;;9976047;29;20590;-49
2021/05/20 13:01:39;;;;;;;6.03;3.42;;;16.30;99.90;;;;;;9979542;29;20069;-49
2021/05/20 13:06:40;;;;;;;9.18;2.88;;;16.60;99.90;;;;;;9971165;29;20057;-49
2021/05/20 13:11:45;;;;;;;5.55;2.38;;;16.90;99.90;;;;;;9978299;29;20054;-49
2021/05/20 13:16:52;;;;;;;3.65;2.25;;;16.90;99.90;;;;;;9971214;29;20042;-49
2021/05/20 13:27:18;;;;;;;5.43;2.30;;;16.90;99.90;;;;;;9970754;29;20121;-49
2021/05/20 13:32:34;;;;;;;2.67;1.25;;;16.70;99.90;;;;;;9970966;29;20046;-50
2021/05/20 13:37:35;;;;;;;3.15;1.40;;;16.60;99.90;;;;;;9967767;29;20046;-49
2021/05/20 13:42:36;;;;;;;4.25;1.20;;;16.80;99.90;;;;;;9970480;29;20499;-49
2021/05/20 13:47:37;;;;;;;4.00;1.60;;;16.80;99.90;;;;;;9968241;29;20057;-52
2021/05/20 13:52:44;;;;;;;2.78;1.45;;;16.70;99.90;;;;;;9968258;29;20049;-52
2021/05/20 13:57:46;;;;;;;3.67;2.10;;;16.40;99.90;;;;;;9972582;29;20053;-52
2021/05/20 14:02:47;;;;;;;2.33;1.20;;;16.20;99.90;;;;;;9969004;29;20046;-52
2021/05/20 14:07:48;;;;;;;5.85;1.80;;;16.20;99.90;;;;;;9968659;29;20058;-52
2021/05/20 14:12:49;;;;;;;3.35;1.52;;;16.20;99.90;;;;;;9968729;29;20554;-52
2021/05/20 14:17:50;;;;;;;3.53;1.40;;;16.20;99.90;;;;;;9967140;29;20049;-52
2021/05/20 14:22:51;;;;;;;2.63;0.90;;;16.20;99.90;;;;;;9967096;29;20046;-52
2021/05/20 14:27:52;;;;;;;2.03;0.77;;;16.40;99.90;;;;;;9966403;29;20042;-49
2021/05/20 14:32:53;;;;;;;5.07;1.25;;;16.40;99.90;;;;;;9969648;29;20077;-50
2021/05/20 14:37:53;;;;;;;2.50;1.35;;;16.50;99.90;;;;;;9968609;29;20051;-52
2021/05/20 14:42:54;;;;;;;1.73;0.85;;;16.50;99.90;;;;;;9964966;29;20054;-49
2021/05/20 14:47:55;;;;;;;2.50;1.00;;;16.30;99.90;;;;;;9968281;29;20061;-52
2021/05/20 14:53:04;;;;;;;1.90;1.10;;;16.20;99.90;;;;;;9965017;29;20086;-52
2021/05/20 15:08:47;;;;;;;1.92;0.60;;;16.00;99.90;;;;;;9966555;29;20615;-52
2021/05/20 15:18:48;;;;;;;1.15;0.50;;;16.00;99.90;;;;;;9966369;29;20452;-52
2021/05/20 15:23:49;;;;;;;2.75;0.50;;;16.20;99.90;;;;;;9965636;29;20141;-52
2021/05/20 15:28:50;;;;;;;1.70;0.63;;;16.20;99.90;;;;;;9965312;29;20038;-52
2021/05/20 15:33:51;;;;;;;1.67;0.75;;;16.20;99.90;;;;;;9965686;29;20053;-52
2021/05/20 15:38:51;;;;;;;1.35;0.68;;;16.10;99.90;;;;;;9965727;29;20050;-52
2021/05/20 15:43:52;;;;;;;2.70;0.75;;;15.90;99.90;;;;;;9966243;29;20229;-52
2021/05/20 15:54:13;;;;;;;1.88;0.80;;;15.60;99.90;;;;;;9965882;29;20197;-52
2021/05/20 15:59:13;;;;;;;1.55;0.70;;;15.50;99.90;;;;;;9974478;29;20050;-52
2021/05/20 16:04:14;;;;;;;2.35;0.80;;;15.50;99.90;;;;;;9972641;29;20508;-52
2021/05/20 16:09:24;;;;;;;2.65;0.95;;;15.40;99.90;;;;;;9969755;29;20463;-52
2021/05/20 16:14:32;;;;;;;2.50;1.67;;;15.40;99.90;;;;;;9974755;29;20054;-52
2021/05/20 16:19:34;;;;;;;3.38;0.90;;;15.40;99.90;;;;;;9973512;29;20050;-52
2021/05/20 16:24:47;;;;;;;1.85;0.90;;;15.30;99.90;;;;;;9969835;29;20055;-52
2021/05/20 16:40:27;;;;;;;1.23;0.68;;;15.50;99.90;;;;;;9972775;29;20050;-51
2021/05/20 16:45:28;;;;;;;2.67;0.50;;;15.50;99.90;;;;;;9974065;29;20476;-51
2021/05/20 16:50:28;;;;;;;3.20;1.42;;;15.40;99.90;;;;;;9972329;29;20051;-52
2021/05/20 16:55:38;;;;;;;1.17;0.38;;;15.30;99.90;;;;;;9971248;29;20050;-52
2021/05/20 17:00:39;;;;;;;1.30;0.68;;;15.40;99.90;;;;;;9966967;29;20136;-52
2021/05/20 17:05:41;;;;;;;1.13;0.50;;;15.30;99.90;;;;;;9967603;29;20231;-51
2021/05/20 17:10:42;;;;;;;1.30;0.60;;;15.10;99.90;;;;;;9968945;29;20054;-51
2021/05/20 17:15:43;;;;;;;2.30;0.40;;;15.00;99.90;;;;;;9968848;29;20507;-51
2021/05/20 17:20:43;;;;;;;1.55;0.45;;;14.90;99.90;;;;;;9967200;29;20265;-52
2021/05/20 17:25:44;;;;;;;2.05;0.82;;;14.90;99.90;;;;;;9966602;29;20399;-52
2021/05/20 17:30:48;;;;;;;1.27;0.43;;;14.80;99.90;;;;;;9968474;29;20538;-52
2021/05/20 17:35:55;;;;;;;1.25;0.60;;;14.90;99.90;;;;;;9968141;29;20054;-52
2021/05/20 17:40:58;;;;;;;2.70;0.70;;;14.90;99.90;;;;;;9969209;29;20046;-52
2021/05/20 17:46:01;;;;;;;1.13;0.47;;;14.80;99.90;;;;;;9966570;29;20251;-52
2021/05/20 17:51:04;;;;;;;1.38;0.60;;;14.80;99.90;;;;;;9928877;29;20030;-52
2021/05/20 17:56:10;;;;;;;2.42;0.85;;;14.60;99.90;;;;;;9965869;29;20374;-52
2021/05/20 18:01:11;;;;;;;1.70;0.55;;;14.60;99.90;;;;;;9965186;29;20608;-52
2021/05/20 18:06:12;;;;;;;1.67;0.90;;;14.50;99.90;;;;;;9962601;29;20058;-52
2021/05/20 18:16:41;;;;;;;1.90;0.68;;;14.50;99.90;;;;;;9965431;29;20076;-52
2021/05/20 18:27:02;;;;;;;1.83;0.70;;;14.50;99.90;;;;;;9960852;29;20061;-52
2021/05/20 18:32:05;;;;;;;1.58;0.40;;;14.50;99.90;;;;;;9956735;29;20346;-52
2021/05/20 18:37:08;;;;;;;1.08;0.55;;;14.50;99.90;;;;;;9966487;29;20085;-51
2021/05/20 18:42:11;;;;;;;1.80;0.47;;;14.40;99.90;;;;;;9961422;29;20050;-52
2021/05/20 18:47:12;;;;;;;1.15;0.50;;;14.50;99.90;;;;;;9960494;29;20190;-51
2021/05/20 18:52:12;;;;;;;1.88;0.70;;;14.40;99.90;;;;;;9959628;29;20046;-52
2021/05/20 18:57:14;;;;;;;1.80;0.93;;;14.40;99.90;;;;;;9958401;29;20414;-51
2021/05/20 19:02:14;;;;;;;2.97;0.73;;;14.30;99.90;;;;;;9963129;29;20674;-51
2021/05/20 19:07:21;;;;;;;0.52;0.32;;;14.30;99.90;;;;;;9961478;29;20102;-52
2021/05/20 19:12:22;;;;;;;4.20;0.80;;;14.20;99.90;;;;;;9963932;29;20057;-52
2021/05/20 19:17:26;;;;;;;0.80;0.40;;;14.30;99.90;;;;;;9966308;29;20079;-52
2021/05/20 19:22:32;;;;;;;1.65;0.40;;;14.20;99.90;;;;;;9959962;29;20346;-52
2021/05/20 19:27:33;;;;;;;1.92;0.57;;;14.30;99.90;;;;;;9962026;29;20035;-51
2021/05/20 19:32:33;;;;;;;3.15;0.60;;;14.20;99.90;;;;;;9961304;29;20111;-51
2021/05/20 19:37:37;;;;;;;0.90;0.40;;;14.20;99.90;;;;;;9957911;29;20195;-52
2021/05/20 19:42:38;;;;;;;3.35;0.40;;;14.30;99.90;;;;;;9963160;29;20057;-52
2021/05/20 19:47:39;;;;;;;1.63;0.50;;;14.30;99.90;;;;;;9961540;29;20118;-52
2021/05/20 19:53:01;;;;;;;0.93;0.40;;;14.30;99.90;;;;;;9959778;29;20049;-52
2021/05/20 20:08:43;;;;;;;1.20;0.30;;;14.20;99.90;;;;;;9956048;29;20042;-52
2021/05/20 20:13:48;;;;;;;1.00;0.20;;;14.20;99.90;;;;;;9962144;29;20207;-52
2021/05/20 20:18:52;;;;;;;1.63;0.30;;;14.10;99.90;;;;;;9960262;29;20054;-50
2021/05/20 20:28:57;;;;;;;1.73;0.30;;;14.00;99.90;;;;;;9955066;29;20125;-51
2021/05/20 20:34:22;;;;;;;0.60;0.20;;;14.10;99.90;;;;;;9956344;29;20054;-51
2021/05/20 20:44:43;;;;;;;0.75;0.20;;;14.20;99.90;;;;;;9963495;29;20126;-51
2021/05/20 20:49:44;;;;;;;0.70;0.20;;;14.10;99.90;;;;;;9968028;29;20387;-51
2021/05/20 20:54:45;;;;;;;0.40;0.20;;;14.20;99.90;;;;;;9965326;29;20050;-51
2021/05/20 20:59:46;;;;;;;1.42;0.40;;;14.10;99.90;;;;;;9966768;29;20074;-51
2021/05/20 21:04:47;;;;;;;0.82;0.32;;;14.10;99.90;;;;;;9968728;29;20065;-50
2021/05/20 21:09:52;;;;;;;1.80;0.20;;;14.10;99.90;;;;;;9965970;29;20558;-51
2021/05/20 21:14:53;;;;;;;1.20;0.38;;;14.00;99.90;;;;;;9966965;29;20054;-51
2021/05/20 21:19:54;;;;;;;1.30;0.50;;;14.00;99.90;;;;;;9965873;29;20046;-51
2021/05/20 21:24:55;;;;;;;1.35;0.40;;;14.00;99.90;;;;;;9967248;29;20574;-51
2021/05/20 21:29:56;;;;;;;0.88;0.32;;;13.80;99.90;;;;;;9966399;29;20042;-50
2021/05/20 21:34:57;;;;;;;0.90;0.35;;;13.80;99.90;;;;;;9965587;29;20491;-51
2021/05/20 21:39:57;;;;;;;1.08;0.50;;;13.90;99.90;;;;;;9964091;29;20054;-51
2021/05/20 21:44:58;;;;;;;1.73;0.50;;;13.90;99.90;;;;;;9966952;29;20590;-51
2021/05/20 21:49:59;;;;;;;2.13;0.60;;;13.90;99.90;;;;;;9966963;29;20037;-51
2021/05/20 21:55:00;;;;;;;1.00;0.40;;;13.80;99.90;;;;;;9964091;29;20061;-51
2021/05/20 22:00:01;;;;;;;0.77;0.35;;;13.80;99.90;;;;;;9962267;29;20525;-51
2021/05/20 22:05:02;;;;;;;1.52;0.65;;;13.90;99.90;;;;;;9968485;29;20120;-51
2021/05/20 22:10:09;;;;;;;0.75;0.30;;;13.90;99.90;;;;;;9966640;29;20048;-51
2021/05/20 22:15:10;;;;;;;1.08;0.38;;;13.80;99.90;;;;;;9970286;29;20054;-51
2021/05/20 22:20:12;;;;;;;1.10;0.50;;;13.90;99.90;;;;;;9966428;29;20061;-51
2021/05/20 22:25:16;;;;;;;1.48;0.50;;;13.90;99.90;;;;;;9970105;29;20124;-51
2021/05/20 22:30:19;;;;;;;0.20;0.10;;;13.90;99.90;;;;;;9966053;29;20042;-51
2021/05/20 22:35:23;;;;;;;0.60;0.28;;;13.90;99.90;;;;;;9970119;29;20046;-51
2021/05/20 22:40:24;;;;;;;1.15;0.43;;;13.90;99.90;;;;;;9966948;29;20050;-51
2021/05/20 22:45:25;;;;;;;1.17;0.68;;;13.90;99.90;;;;;;9971430;29;20046;-51
2021/05/20 22:50:26;;;;;;;0.65;0.20;;;13.90;99.90;;;;;;9964550;29;20054;-50
2021/05/20 22:55:26;;;;;;;3.28;0.40;;;13.90;99.90;;;;;;9967899;29;20267;-51
2021/05/20 23:00:28;;;;;;;0.70;0.30;;;13.90;99.90;;;;;;9968297;29;20042;-51
2021/05/20 23:05:29;;;;;;;1.50;0.40;;;13.80;99.90;;;;;;9968070;29;20338;-51
2021/05/20 23:10:29;;;;;;;0.43;0.20;;;13.90;99.90;;;;;;9966387;29;20498;-51
2021/05/20 23:15:30;;;;;;;0.82;0.30;;;14.00;99.90;;;;;;9961912;29;20050;-51
2021/05/20 23:20:30;;;;;;;2.85;0.32;;;14.00;99.90;;;;;;9963377;29;20582;-51
2021/05/20 23:25:31;;;;;;;0.45;0.20;;;14.10;99.90;;;;;;9957582;29;20054;-51
2021/05/20 23:30:33;;;;;;;1.33;0.70;;;14.00;99.90;;;;;;9962289;29;20574;-51
2021/05/20 23:35:34;;;;;;;0.55;0.30;;;13.90;99.90;;;;;;9960820;29;20701;-51
2021/05/20 23:40:35;;;;;;;0.98;0.17;;;13.90;99.90;;;;;;9964516;29;20042;-51
2021/05/20 23:45:35;;;;;;;0.93;0.32;;;14.00;99.90;;;;;;9961422;29;20181;-51
2021/05/20 23:50:36;;;;;;;1.17;0.40;;;14.00;99.90;;;;;;9960035;29;20042;-51
2021/05/20 23:55:37;;;;;;;1.80;0.38;;;14.00;99.90;;;;;;9959415;29;20054;-51
